Atwood, IN

4:53 PM EST on February 27, 2017 (GMT -0500)
Williamson Farms | | Change Station
Active Advisory: Flood Warning Active Notice: Public Information Statement

Elev 823 ft 41.27 °N, 86.05 °W | Updated 13 minutes ago

Overcast
Overcast
50.4 °F
Feels Like 50.4 °F
N
0.0
Wind Variable Wind from SSW
Gusts 0.0 mph

Today
High -- | Low -- °F
--% Chance of Precip.
Yesterday
High -- | Low -- °F
Precip. -- in
Pressure 30.14 in
Visibility 10.0 miles
Clouds Scattered Clouds 4400 ft
Mostly Cloudy 5000 ft
Overcast 7500 ft
Dew Point 37 °F
Humidity 60%
Rainfall 0.00 in
Snow Depth Not available.
7:20 AM 6:32 PM
New Moon, 2% visible
METAR KASW 272136Z AUTO 15005KT 10SM SCT044 BKN050 OVC075 10/00 A3014 RMK AO2
Pressure 30.14 in
Visibility 10.0 miles
Clouds Scattered Clouds 4400 ft
Mostly Cloudy 5000 ft
Overcast 7500 ft
Dew Point 37 °F
Humidity 60%
Rainfall 0.00 in
Snow Depth Not available.
7:20 AM 6:32 PM
New Moon, 2% visible
METAR KASW 272136Z AUTO 15005KT 10SM SCT044 BKN050 OVC075 10/00 A3014 RMK AO2

Get Your Daily Forecast Email!

Thanks for signing up!

Be on the lookout for a verification email in your inbox.

You'll start receiving the daily forecast at 8 AM.

×

10-Day Weather Forecast

Almanac

Astronomy

Feb. 27, 2017 Rise Set
Actual Time
Civil Twilight
Nautical Twilight
Astronomical Twilight
Moon
Length of Visible Light
Length of Day
Tomorrow will be .
, % of the Moon is Illuminated

Today's Extremes

State Highs State Lows

Community

WunderPhotos

Upload Photos

1,962,540 photos uploaded!

WunderBlog® & News

Nearby

Air Quality

  Air Quality AQ Index Pollutant
Not available.

Snow Depth

Station Depth Elevation

Earthquake Activity

City Distance Mag. Time & Date
Minimum magnitude displayed is 2.5.

Coastal Water Temperatures

Place Temperature

Stations

Nearby Weather Stations

Station Location Temp. Windchill Dew Point Humidity Wind Precip. Elev Updated Type
                   

Watches & Warnings

Flood Warning
Issued: 10:06 AM EST Feb. 27, 2017 – National Weather Service

The National Weather Service in northern Indiana has issued a

* Flood Warning for
the Eel River at North Manchester
* from Wednesday morning to Friday afternoon.
* At 9 am Monday the stage was 3.5 feet and steady.
* Minor flooding is forecast.
* Flood stage is 9.0 feet.
* Forecast... the river will rise above flood stage Wednesday morning
and crest near 10.9 feet around 1 am Thursday March 2 and fall
below flood stage around 3 PM Thursday March 2.
* At 11.0 feet... flood water nears the lumber company and trailer
court on South Mill street.
* This crest compares to a previous crest of 10.9 feet which occurred
on may 11 2016.


Lat... Lon 4076 8635 4097 8592 4102 8577 4099 8577
      4087 8599 4072 8631